Graz Airport LOWG

Flugplatz Daten

Name: Graz Airport

Ident: LOWG

Lat: 46,99110031

Long: 15,43959999

Platzhöhe: 1115 ft

IataCode: GRZ

City: Graz

Homepage: http://www.flughafen-graz.at/

Metar

2022/08/13 16:50
LOWG 131650Z AUTO 18005KT 9999 FEW050 21/15 Q1014 TEMPO SHRA

Taf

2022/08/13 12:00
TAF LOWG 131115Z 1312/1412 VRB06KT 9999 FEW060 TX27/1412Z TN14/1403Z
TEMPO 1312/1313 -SHRA PROB30
TEMPO 1312/1313 SHRA
TEMPO 1312/1318 FEW060CB

Webcams

Airport Airport 2 Airport 3
Gewünschte Webcam nicht vorhanden? Dann fügen Sie eine hinzu. Sie wird dann so schnell wie möglich freigeschaltet
Url: Title: